.
WxDataArchive / Data Records for 2008-11-22
2008-11-21 November 2008 2008-11-23

Data Records for Saturday, 22 November 2008

Time	Temp	Chill	HIndex	Humid	Dewpt	 Wind 	HiWind	WindDir	Rain 	Barom 
-----	----	-----	------	-----	-----	------	------	-------	-----	----- 
00:00	20.6	20.6	20.6	60	8.9	1	3	248	0.00	30.511 
00:05	20.6	20.6	20.6	60	8.9	1	7	248	0.00	30.509 
00:10	20.6	20.6	20.6	60	8.9	1	4	248	0.00	30.508 
00:15	20.6	20.6	20.6	60	8.9	1	4	248	0.00	30.507 
00:20	20.6	20.6	20.6	60	8.9	1	4	248	0.00	30.507 
00:25	20.6	20.6	20.6	60	8.9	1	3	248	0.00	30.505 
00:30	20.5	20.5	20.5	60	8.9	1	4	248	0.00	30.507 
00:35	20.5	20.5	20.5	60	8.9	0	3	248	0.00	30.509 
00:40	20.5	20.5	20.5	60	8.9	1	4	248	0.00	30.509 
00:45	20.3	20.3	20.3	60	8.7	0	1	248	0.00	30.511 
00:50	20.2	20.2	20.2	61	8.9	1	3	248	0.00	30.512 
00:55	20.0	20.0	20.0	61	8.7	1	3	248	0.00	30.512 
01:00	19.9	19.9	19.9	61	8.7	0	2	248	0.00	30.512 
01:05	19.9	19.9	19.9	62	9.0	0	1	248	0.00	30.511 
01:10	19.7	19.7	19.7	62	8.8	0	1	248	0.00	30.511 
01:15	19.5	19.5	19.5	62	8.6	1	3	248	0.00	30.512 
01:20	19.5	19.5	19.5	62	8.6	1	3	248	0.00	30.512 
01:25	19.5	19.5	19.5	62	8.6	1	3	248	0.00	30.512 
01:30	19.5	19.5	19.5	62	8.6	1	4	248	0.00	30.513 
01:35	19.5	19.5	19.5	62	8.6	1	5	248	0.00	30.513 
01:40	19.5	19.5	19.5	62	8.6	1	4	248	0.00	30.513 
01:45	19.5	19.5	19.5	62	8.6	0	3	248	0.00	30.512 
01:50	19.5	19.5	19.5	62	8.6	1	4	248	0.00	30.512 
01:55	19.5	19.5	19.5	62	8.6	1	2	248	0.00	30.512 
02:00	19.5	19.5	19.5	62	8.6	0	4	248	0.00	30.513 
02:05	19.5	19.5	19.5	62	8.6	0	1	248	0.00	30.513 
02:10	19.5	19.5	19.5	62	8.6	0	2	225	0.00	30.513 
02:15	19.4	19.4	19.4	62	8.5	0	1	225	0.00	30.515 
02:20	19.4	19.4	19.4	62	8.5	0	2	248	0.00	30.517 
02:25	19.4	19.4	19.4	62	8.5	0	2	248	0.00	30.518 
02:30	19.4	19.4	19.4	62	8.5	1	3	248	0.00	30.524 
02:35	19.4	19.4	19.4	62	8.5	0	2	248	0.00	30.526 
02:40	19.2	19.2	19.2	63	8.7	0	1	248	0.00	30.527 
02:45	19.2	19.2	19.2	63	8.7	0	1	248	0.00	30.527 
02:50	19.2	19.2	19.2	63	8.7	0	2	248	0.00	30.527 
02:55	19.2	19.2	19.2	63	8.7	0	2	248	0.00	30.527 
03:00	19.2	19.2	19.2	63	8.7	0	1	248	0.00	30.526 
03:05	19.1	19.1	19.1	63	8.6	0	3	248	0.00	30.527 
03:10	19.1	19.1	19.1	63	8.6	0	3	248	0.00	30.527 
03:15	19.1	19.1	19.1	63	8.6	0	2	248	0.00	30.527 
03:20	19.1	19.1	19.1	63	8.6	0	2	248	0.00	30.523 
03:25	19.1	19.1	19.1	63	8.6	0	2	248	0.00	30.523 
03:30	19.1	19.1	19.1	63	8.6	0	1	248	0.00	30.521 
03:35	19.1	19.1	19.1	63	8.6	0	3	248	0.00	30.522 
03:40	19.1	19.1	19.1	63	8.6	0	3	248	0.00	30.519 
03:45	18.9	18.9	18.9	63	8.4	0	2	248	0.00	30.516 
03:50	18.9	18.9	18.9	63	8.4	0	3	248	0.00	30.515 
03:55	18.9	18.9	18.9	63	8.4	0	2	248	0.00	30.515 
04:00	18.9	18.9	18.9	63	8.4	0	1	248	0.00	30.516 
04:05	18.8	18.8	18.8	63	8.3	0	2	248	0.00	30.516 
04:10	18.8	18.8	18.8	63	8.3	0	1	248	0.00	30.517 
04:15	18.8	18.8	18.8	64	8.7	0	2	248	0.00	30.519 
04:20	18.8	18.8	18.8	64	8.7	0	3	248	0.00	30.518 
04:25	18.8	18.8	18.8	64	8.7	0	2	248	0.00	30.522 
04:30	18.8	18.8	18.8	64	8.7	0	1	248	0.00	30.523 
04:35	18.8	18.8	18.8	64	8.7	0	2	248	0.00	30.521 
04:40	18.8	18.8	18.8	64	8.7	0	2	248	0.00	30.520 
04:45	18.8	18.8	18.8	64	8.7	0	1	248	0.00	30.522 
04:50	18.8	18.8	18.8	64	8.7	0	2	248	0.00	30.520 
04:55	18.8	18.8	18.8	64	8.7	0	1	248	0.00	30.518 
05:00	18.8	18.8	18.8	64	8.7	0	1	248	0.00	30.520 
05:05	18.8	18.8	18.8	64	8.7	0	3	248	0.00	30.523 
05:10	18.8	18.8	18.8	64	8.7	0	3	248	0.00	30.525 
05:15	18.8	18.8	18.8	64	8.7	0	3	248	0.00	30.523 
05:20	18.8	18.8	18.8	64	8.7	0	2	248	0.00	30.526 
05:25	18.8	18.8	18.8	64	8.7	1	3	248	0.00	30.528 
05:30	18.9	18.9	18.9	64	8.8	0	2	248	0.00	30.530 
05:35	18.9	18.9	18.9	63	8.4	0	2	248	0.00	30.532 
05:40	18.9	18.9	18.9	63	8.4	1	4	248	0.00	30.532 
05:45	18.9	18.9	18.9	63	8.4	0	1	248	0.00	30.531 
05:50	18.9	18.9	18.9	63	8.4	0	2	248	0.00	30.533 
05:55	19.1	19.1	19.1	63	8.6	0	3	248	0.00	30.531 
06:00	19.1	19.1	19.1	62	8.3	0	1	225	0.00	30.532 
06:05	18.9	18.9	18.9	62	8.1	0	1	248	0.00	30.533 
06:10	18.9	18.9	18.9	62	8.1	0	1	248	0.00	30.533 
06:15	18.9	18.9	18.9	63	8.4	0	1	248	0.00	30.534 
06:20	18.8	18.8	18.8	63	8.3	0	2	248	0.00	30.535 
06:25	18.6	18.6	18.6	64	8.5	0	2	248	0.00	30.538 
06:30	18.6	18.6	18.6	64	8.5	0	2	248	0.00	30.540 
06:35	18.6	18.6	18.6	64	8.5	0	2	248	0.00	30.541 
06:40	18.6	18.6	18.6	64	8.5	0	2	248	0.00	30.542 
06:45	18.6	18.6	18.6	65	8.8	0	2	248	0.00	30.543 
06:50	18.4	18.4	18.4	65	8.6	0	2	248	0.00	30.544 
06:55	18.3	18.3	18.3	65	8.5	0	2	248	0.00	30.541 
07:00	18.3	18.3	18.3	65	8.5	0	1	248	0.00	30.547 
07:05	18.1	18.1	18.1	65	8.3	0	1	248	0.00	30.550 
07:10	18.0	18.0	18.0	65	8.3	0	1	248	0.00	30.550 
07:15	17.8	17.8	17.8	66	8.4	0	1	248	0.00	30.552 
07:20	17.8	17.8	17.8	66	8.4	0	1	248	0.00	30.553 
07:25	17.8	17.8	17.8	67	8.7	0	1	248	0.00	30.552 
07:30	17.7	17.7	17.7	67	8.6	0	1	248	0.00	30.556 
07:35	17.8	17.8	17.8	67	8.7	1	3	248	0.00	30.558 
07:40	17.8	17.8	17.8	67	8.7	0	2	248	0.00	30.560 
07:45	18.0	18.0	18.0	67	8.9	0	2	248	0.00	30.565 
07:50	18.1	18.1	18.1	67	9.0	1	3	248	0.00	30.566 
07:55	18.3	18.3	18.3	67	9.2	0	3	248	0.00	30.569 
08:00	18.4	18.4	18.4	67	9.3	0	3	248	0.00	30.570 
08:05	18.8	18.8	18.8	67	9.7	0	3	248	0.00	30.568 
08:10	18.9	18.9	18.9	66	9.4	0	3	248	0.00	30.568 
08:15	19.2	19.2	19.2	66	9.7	0	2	248	0.00	30.567 
08:20	19.4	19.4	19.4	66	9.9	0	3	248	0.00	30.570 
08:25	19.5	19.5	19.5	66	10.0	1	4	248	0.00	30.572 
08:30	19.7	19.7	19.7	65	9.9	0	2	225	0.00	30.571 
08:35	20.0	20.0	20.0	65	10.2	0	3	225	0.00	30.569 
08:40	20.2	20.2	20.2	65	10.3	0	2	248	0.00	30.570 
08:45	20.3	20.3	20.3	64	10.1	1	3	248	0.00	30.569 
08:50	20.5	20.5	20.5	64	10.3	0	3	248	0.00	30.565 
08:55	20.8	20.8	20.8	64	10.6	0	2	248	0.00	30.564 
09:00	21.0	21.0	21.0	63	10.4	1	3	248	0.00	30.566 
09:05	21.1	21.1	21.1	62	10.1	1	4	248	0.00	30.569 
09:10	21.3	21.3	21.3	62	10.3	1	4	248	0.00	30.568 
09:15	21.4	21.4	21.4	62	10.4	1	3	248	0.00	30.569 
09:20	21.6	21.6	21.6	62	10.6	0	2	248	0.00	30.566 
09:25	21.8	21.8	21.8	62	10.8	0	1	248	0.00	30.565 
09:30	21.9	21.9	21.9	62	10.9	0	1	248	0.00	30.566 
09:35	22.1	22.1	22.1	62	11.1	0	2	248	0.00	30.567 
09:40	22.2	22.2	22.2	62	11.2	0	3	248	0.00	30.572 
09:45	22.2	22.2	22.2	61	10.8	0	3	248	0.00	30.566 
09:50	22.4	22.4	22.4	61	11.0	0	1	248	0.00	30.566 
09:55	22.5	22.5	22.5	61	11.1	0	1	248	0.00	30.565 
10:00	22.7	22.7	22.7	61	11.3	1	3	248	0.00	30.566 
10:05	22.7	22.7	22.7	61	11.3	1	3	248	0.00	30.567 
10:10	22.9	22.9	22.9	60	11.1	1	3	248	0.00	30.576 
10:15	23.2	23.2	23.2	60	11.4	1	3	248	0.00	30.567 
10:20	23.5	23.5	23.5	60	11.7	0	2	248	0.00	30.564 
10:25	23.6	23.6	23.6	60	11.8	0	1	248	0.00	30.564 
10:30	23.9	23.9	23.9	59	11.7	0	2	248	0.00	30.564 
10:35	24.2	24.2	24.2	60	12.3	0	2	248	0.00	30.563 
10:40	24.4	24.4	24.4	59	12.2	0	2	248	0.00	30.566 
10:45	24.7	24.7	24.7	60	12.8	0	2	248	0.00	30.570 
10:50	24.8	24.8	24.8	59	12.5	0	2	248	0.00	30.568 
10:55	25.0	25.0	25.0	59	12.7	0	1	248	0.00	30.562 
11:00	25.1	25.1	25.1	59	12.8	0	2	248	0.00	30.560 
11:05	25.1	25.1	25.1	58	12.4	1	2	248	0.00	30.561 
11:10	25.3	25.3	25.3	58	12.6	0	2	248	0.00	30.561 
11:15	25.4	25.4	25.4	57	12.3	1	3	248	0.00	30.568 
11:20	25.6	25.6	25.6	57	12.5	1	3	248	0.00	30.576 
11:25	25.6	25.6	25.6	57	12.5	1	3	248	0.00	30.577 
11:30	25.7	25.7	25.7	56	12.2	2	6	248	0.00	30.577 
11:35	25.7	25.7	25.7	56	12.2	1	4	248	0.00	30.574 
11:40	25.7	25.7	25.7	56	12.2	1	3	248	0.00	30.571 
11:45	25.8	25.8	25.8	57	12.7	1	2	248	0.00	30.565 
11:50	26.0	26.0	26.0	56	12.5	1	2	248	0.00	30.562 
11:55	26.1	26.1	26.1	56	12.6	0	2	248	0.00	30.556 
12:00	26.1	26.1	26.1	55	12.2	1	3	248	0.00	30.548 
12:05	26.1	26.1	26.1	55	12.2	0	2	248	0.00	30.546 
12:10	26.1	26.1	26.1	54	11.8	0	2	202	0.00	30.545 
12:15	26.3	26.3	26.3	54	11.9	1	4	248	0.00	30.547 
12:20	26.3	26.3	26.3	55	12.4	1	4	248	0.00	30.548 
12:25	26.4	26.4	26.4	54	12.0	1	5	248	0.00	30.547 
12:30	26.6	26.6	26.6	55	12.6	1	2	248	0.00	30.547 
12:35	26.6	26.6	26.6	54	12.2	1	3	248	0.00	30.546 
12:40	26.7	26.7	26.7	54	12.3	1	5	248	0.00	30.546 
12:45	26.9	26.9	26.9	52	11.7	2	7	248	0.00	30.545 
12:50	26.9	26.9	26.9	52	11.7	1	4	248	0.00	30.542 
12:55	26.9	26.9	26.9	51	11.2	2	5	248	0.00	30.542 
13:00	27.0	27.0	27.0	52	11.7	1	3	248	0.00	30.535 
13:05	27.2	27.2	27.2	53	12.4	1	4	225	0.00	30.532 
13:10	27.3	27.3	27.3	52	12.0	1	2	225	0.00	30.531 
13:15	27.5	27.5	27.5	52	12.2	0	3	225	0.00	30.527 
13:20	27.8	27.8	27.8	51	12.1	1	2	225	0.00	30.525 
13:25	27.9	27.9	27.9	50	11.7	1	2	248	0.00	30.521 
13:30	28.2	28.2	28.2	51	12.4	0	2	248	0.00	30.515 
13:35	28.4	28.4	28.4	50	12.2	1	4	248	0.00	30.513 
13:40	28.2	28.2	28.2	50	12.0	1	5	248	0.00	30.512 
13:45	28.1	28.1	28.1	50	11.9	1	4	248	0.00	30.509 
13:50	28.1	28.1	28.1	52	12.8	0	2	248	0.00	30.500 
13:55	28.2	28.2	28.2	51	12.4	1	3	270	0.00	30.496 
14:00	28.2	28.2	28.2	52	12.9	0	2	270	0.00	30.492 
14:05	28.2	28.2	28.2	52	12.9	0	3	270	0.00	30.488 
14:10	28.4	28.4	28.4	51	12.6	0	2	270	0.00	30.488 
14:15	28.5	28.5	28.5	53	13.6	0	2	248	0.00	30.485 
14:20	28.8	28.8	28.8	53	13.9	0	4	248	0.00	30.483 
14:25	29.0	29.0	29.0	52	13.6	0	2	248	0.00	30.481 
14:30	29.0	29.0	29.0	50	12.7	1	4	248	0.00	30.481 
14:35	29.1	29.1	29.1	52	13.7	1	3	248	0.00	30.479 
14:40	29.0	29.0	29.0	52	13.6	1	4	248	0.00	30.476 
14:45	29.0	29.0	29.0	52	13.6	1	4	248	0.00	30.475 
14:50	29.0	29.0	29.0	51	13.2	1	4	248	0.00	30.470 
14:55	28.8	28.8	28.8	52	13.4	0	2	248	0.00	30.465 
15:00	28.8	28.8	28.8	52	13.4	1	3	248	0.00	30.466 
15:05	29.0	29.0	29.0	52	13.6	0	2	248	0.00	30.468 
15:10	29.1	29.1	29.1	53	14.1	1	3	248	0.00	30.465 
15:15	29.4	29.4	29.4	51	13.5	1	4	248	0.00	30.463 
15:20	29.3	29.3	29.3	52	13.9	1	5	248	0.00	30.463 
15:25	29.1	29.1	29.1	51	13.3	0	2	225	0.00	30.462 
15:30	29.0	29.0	29.0	52	13.6	0	2	225	0.00	30.463 
15:35	28.8	28.8	28.8	52	13.4	2	4	248	0.00	30.463 
15:40	28.8	28.8	28.8	54	14.3	1	3	248	0.00	30.457 
15:45	28.8	28.8	28.8	54	14.3	1	3	225	0.00	30.453 
15:50	28.7	28.7	28.7	53	13.8	1	5	248	0.00	30.453 
15:55	28.4	28.4	28.4	54	13.9	1	3	248	0.00	30.453 
16:00	28.4	28.4	28.4	55	14.3	0	3	248	0.00	30.458 
16:05	28.2	28.2	28.2	56	14.5	1	3	248	0.00	30.459 
16:10	28.2	28.2	28.2	56	14.5	1	3	248	0.00	30.455 
16:15	28.2	28.2	28.2	58	15.3	0	3	248	0.00	30.459 
16:20	28.1	28.1	28.1	58	15.3	1	3	248	0.00	30.459 
16:25	28.1	28.1	28.1	58	15.3	1	4	248	0.00	30.459 
16:30	28.1	28.1	28.1	58	15.3	0	3	248	0.00	30.457 
16:35	27.9	27.9	27.9	58	15.1	0	1	248	0.00	30.457 
16:40	27.9	27.9	27.9	58	15.1	0	1	248	0.00	30.457 
16:45	27.8	27.8	27.8	58	15.0	0	2	248	0.00	30.454 
16:50	27.8	27.8	27.8	58	15.0	0	0	---	0.00	30.454 
16:55	27.6	27.6	27.6	59	15.2	0	1	248	0.00	30.454 
17:00	27.5	27.5	27.5	60	15.5	0	0	---	0.00	30.452 
17:05	27.3	27.3	27.3	60	15.3	0	1	248	0.00	30.452 
17:10	27.2	27.2	27.2	60	15.2	0	0	---	0.00	30.452 
17:15	27.0	27.0	27.0	61	15.4	0	0	---	0.00	30.450 
17:20	26.7	26.7	26.7	62	15.5	0	0	---	0.00	30.450 
17:25	26.6	26.6	26.6	62	15.4	0	0	---	0.00	30.450 
17:30	26.3	26.3	26.3	62	15.1	0	0	---	0.00	30.453 
17:35	26.1	26.1	26.1	62	14.9	0	0	---	0.00	30.453 
17:40	25.8	25.8	25.8	63	15.0	0	0	---	0.00	30.453 
17:45	25.6	25.6	25.6	65	15.5	0	0	---	0.00	30.451 
17:50	25.3	25.3	25.3	65	15.2	0	0	---	0.00	30.451 
17:55	25.1	25.1	25.1	66	15.4	0	0	---	0.00	30.451 
18:00	25.0	25.0	25.0	66	15.3	0	0	---	0.00	30.451 
18:05	24.8	24.8	24.8	67	15.4	0	0	---	0.00	30.451 
18:10	24.5	24.5	24.5	67	15.1	0	0	---	0.00	30.451 
18:15	24.2	24.2	24.2	67	14.8	0	0	---	0.00	30.452 
18:20	24.1	24.1	24.1	68	15.1	0	0	---	0.00	30.452 
18:25	23.8	23.8	23.8	68	14.8	0	0	---	0.00	30.452 
18:30	23.5	23.5	23.5	69	14.9	0	0	---	0.00	30.454 
18:35	23.3	23.3	23.3	69	14.7	0	0	---	0.00	30.454 
18:40	23.0	23.0	23.0	70	14.7	0	0	---	0.00	30.454 
18:45	22.7	22.7	22.7	71	14.7	0	0	---	0.00	30.455 
18:50	22.5	22.5	22.5	72	14.9	0	0	---	0.00	30.455 
18:55	22.4	22.4	22.4	73	15.1	0	0	---	0.00	30.455 
19:00	22.1	22.1	22.1	73	14.8	0	0	---	0.00	30.449 
19:05	21.9	21.9	21.9	73	14.6	0	0	---	0.00	30.449 
19:10	21.8	21.8	21.8	73	14.5	0	0	---	0.00	30.448 
19:15	21.6	21.6	21.6	74	14.6	0	0	---	0.00	30.448 
19:20	21.6	21.6	21.6	75	14.9	0	0	---	0.00	30.446 
19:25	21.6	21.6	21.6	76	15.2	0	1	248	0.00	30.444 
19:30	21.8	21.8	21.8	76	15.4	0	0	---	0.00	30.444 
19:35	21.8	21.8	21.8	76	15.4	0	0	---	0.00	30.444 
19:40	21.8	21.8	21.8	76	15.4	0	0	---	0.00	30.446 
19:45	21.8	21.8	21.8	75	15.1	0	0	---	0.00	30.449 
19:50	21.8	21.8	21.8	75	15.1	0	0	---	0.00	30.447 
19:55	21.6	21.6	21.6	75	14.9	0	0	---	0.00	30.447 
20:00	21.4	21.4	21.4	76	15.0	0	0	---	0.00	30.448 
20:05	21.3	21.3	21.3	76	14.9	0	0	---	0.00	30.445 
20:10	21.3	21.3	21.3	77	15.2	0	0	---	0.00	30.441 
20:15	21.1	21.1	21.1	77	15.0	0	0	---	0.00	30.446 
20:20	21.0	21.0	21.0	77	14.9	0	0	---	0.00	30.448 
20:25	20.8	20.8	20.8	77	14.7	0	0	---	0.00	30.445 
20:30	20.6	20.6	20.6	77	14.6	0	0	---	0.00	30.442 
20:35	20.3	20.3	20.3	77	14.3	0	0	---	0.00	30.443 
20:40	20.2	20.2	20.2	77	14.2	0	0	---	0.00	30.445 
20:45	19.9	19.9	19.9	77	13.9	0	0	---	0.00	30.443 
20:50	19.7	19.7	19.7	77	13.7	0	0	---	0.00	30.445 
20:55	19.4	19.4	19.4	78	13.7	0	0	---	0.00	30.443 
21:00	19.1	19.1	19.1	78	13.4	0	0	---	0.00	30.443 
21:05	18.9	18.9	18.9	79	13.5	0	0	---	0.00	30.440 
21:10	18.8	18.8	18.8	80	13.7	0	0	---	0.00	30.440 
21:15	18.8	18.8	18.8	80	13.7	0	0	---	0.00	30.443 
21:20	18.6	18.6	18.6	80	13.5	0	0	---	0.00	30.442 
21:25	18.4	18.4	18.4	81	13.6	0	0	---	0.00	30.442 
21:30	18.3	18.3	18.3	81	13.5	0	0	---	0.00	30.442 
21:35	18.0	18.0	18.0	81	13.2	0	0	---	0.00	30.442 
21:40	17.8	17.8	17.8	81	13.0	0	0	---	0.00	30.443 
21:45	17.7	17.7	17.7	81	12.9	0	0	---	0.00	30.443 
21:50	17.5	17.5	17.5	82	13.0	0	0	---	0.00	30.443 
21:55	17.5	17.5	17.5	82	13.0	0	0	---	0.00	30.445 
22:00	17.3	17.3	17.3	82	12.8	0	0	---	0.00	30.449 
22:05	17.2	17.2	17.2	83	12.9	0	0	---	0.00	30.451 
22:10	17.2	17.2	17.2	83	12.9	0	0	---	0.00	30.448 
22:15	17.0	17.0	17.0	84	13.0	0	0	---	0.00	30.446 
22:20	17.0	17.0	17.0	84	13.0	0	0	---	0.00	30.440 
22:25	16.9	16.9	16.9	84	12.9	0	0	---	0.00	30.438 
22:30	16.9	16.9	16.9	84	12.9	0	0	---	0.00	30.435 
22:35	16.7	16.7	16.7	84	12.7	0	0	---	0.00	30.437 
22:40	16.7	16.7	16.7	84	12.7	0	0	---	0.00	30.437 
22:45	16.5	16.5	16.5	84	12.5	0	0	---	0.00	30.437 
22:50	16.5	16.5	16.5	84	12.5	0	0	---	0.00	30.436 
22:55	16.4	16.4	16.4	84	12.4	0	0	---	0.00	30.437 
23:00	16.5	16.5	16.5	85	12.8	0	0	---	0.00	30.432 
23:05	16.5	16.5	16.5	85	12.8	0	0	---	0.00	30.425 
23:10	16.5	16.5	16.5	85	12.8	0	0	---	0.00	30.427 
23:15	16.4	16.4	16.4	85	12.7	0	0	---	0.00	30.428 
23:20	16.4	16.4	16.4	85	12.7	0	0	---	0.00	30.429 
23:25	16.2	16.2	16.2	85	12.5	0	0	---	0.00	30.428 
23:30	16.2	16.2	16.2	86	12.8	0	0	---	0.00	30.427 
23:35	16.2	16.2	16.2	85	12.5	0	0	---	0.00	30.426 
23:40	16.1	16.1	16.1	85	12.4	0	0	---	0.00	30.426 
23:45	16.1	16.1	16.1	85	12.4	0	0	---	0.00	30.428 
23:50	15.9	15.9	15.9	85	12.2	0	0	---	0.00	30.427 
23:55	15.7	15.7	15.7	86	12.3	0	0	---	0.00	30.425 

CoCoRaHS
IN-AL-39
A2 Web Hosting
Creative Commons License
GoDaddy
Look for:

loaded 2017-10-20 19:58:01 • last modified 2010-11-18 10:43:29
Privacy PolicyDisclaimer
• wx.awcolley.com is powered by PmWiki v.2002016 •
• all content (unless otherwise noted) © 2017 A W Colley